createdAt,value
2019-06-26T00:02:51.452Z,21.81
2019-06-26T00:05:55.175Z,21.80
2019-06-26T00:08:59.194Z,21.75
2019-06-26T00:12:03.165Z,21.68
2019-06-26T00:15:07.720Z,21.66
2019-06-26T00:18:11.458Z,21.72
2019-06-26T00:21:15.169Z,21.74
2019-06-26T00:24:18.927Z,21.75
2019-06-26T00:27:22.628Z,21.72
2019-06-26T00:30:26.687Z,21.72
2019-06-26T00:33:30.378Z,21.72
2019-06-26T00:36:34.084Z,21.62
2019-06-26T00:39:37.914Z,21.55
2019-06-26T00:42:41.637Z,21.50
2019-06-26T00:45:45.414Z,21.49
2019-06-26T00:48:49.145Z,21.46
2019-06-26T00:51:53.036Z,21.44
2019-06-26T00:54:57.055Z,21.41
2019-06-26T00:58:00.747Z,21.37
2019-06-26T01:01:04.456Z,21.37
2019-06-26T01:04:12.955Z,21.39
2019-06-26T01:07:16.754Z,21.34
2019-06-26T01:10:20.987Z,21.31
2019-06-26T01:13:25.123Z,21.30
2019-06-26T01:16:29.156Z,21.27
2019-06-26T01:19:33.197Z,21.22
2019-06-26T01:22:36.990Z,21.23
2019-06-26T01:25:40.770Z,21.22
2019-06-26T01:28:44.464Z,21.20
2019-06-26T01:31:48.181Z,21.21
2019-06-26T01:34:51.877Z,21.18
2019-06-26T01:37:55.570Z,21.07
2019-06-26T01:40:59.284Z,21.14
2019-06-26T01:44:14.239Z,21.07
2019-06-26T01:47:08.656Z,21.07
2019-06-26T01:50:12.416Z,21.04
2019-06-26T01:53:16.529Z,21.00
2019-06-26T01:56:20.381Z,21.01
2019-06-26T01:59:24.084Z,20.97
2019-06-26T02:02:28.160Z,20.96
2019-06-26T02:05:31.952Z,20.97
2019-06-26T02:08:35.979Z,20.90
2019-06-26T02:11:40.011Z,20.89
2019-06-26T02:14:43.940Z,20.95
2019-06-26T02:17:47.644Z,20.87
2019-06-26T02:20:51.354Z,20.90
2019-06-26T02:23:55.055Z,20.90
2019-06-26T02:26:59.180Z,20.84
2019-06-26T02:30:02.962Z,20.83
2019-06-26T02:33:06.756Z,20.81
2019-06-26T02:36:10.888Z,20.81
2019-06-26T02:39:14.617Z,20.81
2019-06-26T02:42:18.846Z,20.82
2019-06-26T02:45:22.605Z,20.78
2019-06-26T02:48:26.678Z,20.77
2019-06-26T02:51:30.749Z,20.72
2019-06-26T02:54:34.571Z,20.77
2019-06-26T02:57:38.281Z,20.72
2019-06-26T03:00:42.129Z,20.70
2019-06-26T03:03:46.189Z,20.69
2019-06-26T03:06:49.893Z,20.70
2019-06-26T03:09:53.682Z,20.73
2019-06-26T03:12:57.689Z,20.68
2019-06-26T03:16:01.411Z,20.65
2019-06-26T03:19:05.197Z,20.68
2019-06-26T03:22:09.204Z,20.67
2019-06-26T03:25:12.983Z,20.67
2019-06-26T03:28:16.751Z,20.69
2019-06-26T03:31:20.455Z,20.75
2019-06-26T03:34:24.626Z,20.75
2019-06-26T03:37:28.308Z,20.84
2019-06-26T03:40:32.019Z,20.82
2019-06-26T03:43:35.904Z,20.82
2019-06-26T03:46:39.659Z,20.86
2019-06-26T03:49:43.629Z,20.87
2019-06-26T03:52:47.426Z,20.92
2019-06-26T03:55:51.146Z,20.92
2019-06-26T03:58:55.244Z,20.96
2019-06-26T04:01:59.443Z,21.05
2019-06-26T04:05:03.163Z,21.24
2019-06-26T04:08:07.699Z,21.18
2019-06-26T04:11:11.460Z,21.22
2019-06-26T04:14:15.545Z,21.42
2019-06-26T04:17:19.261Z,21.39
2019-06-26T04:20:23.263Z,21.38
2019-06-26T04:23:26.968Z,21.42
2019-06-26T04:26:30.748Z,21.41
2019-06-26T04:29:34.559Z,21.51
2019-06-26T04:32:38.353Z,21.56
2019-06-26T04:35:42.043Z,21.65
2019-06-26T04:38:45.776Z,21.74
2019-06-26T04:41:49.799Z,21.85
2019-06-26T04:44:53.499Z,21.83
2019-06-26T04:47:57.544Z,21.87
2019-06-26T04:51:01.264Z,22.05
2019-06-26T04:54:05.095Z,22.21
2019-06-26T04:57:08.788Z,22.26
2019-06-26T05:00:13.883Z,22.27
2019-06-26T05:03:17.604Z,22.32
2019-06-26T05:06:21.340Z,22.41
2019-06-26T05:09:25.266Z,22.53
2019-06-26T05:12:29.019Z,22.85
2019-06-26T05:15:32.714Z,22.90
2019-06-26T05:18:36.721Z,22.94
2019-06-26T05:21:40.437Z,23.08
2019-06-26T05:24:46.412Z,23.02
2019-06-26T05:27:49.975Z,23.02
2019-06-26T05:30:54.039Z,23.13
2019-06-26T05:33:57.753Z,23.24
2019-06-26T05:37:01.744Z,23.30
2019-06-26T05:40:07.324Z,23.38
2019-06-26T05:43:11.105Z,23.56
2019-06-26T05:46:30.162Z,23.62
2019-06-26T05:49:20.357Z,23.75
2019-06-26T05:52:24.215Z,23.86
2019-06-26T05:55:28.369Z,23.94
2019-06-26T05:58:32.035Z,23.96
2019-06-26T06:01:35.793Z,24.12
2019-06-26T06:04:39.715Z,24.24
2019-06-26T06:07:43.409Z,24.44
2019-06-26T06:10:47.239Z,24.37
2019-06-26T06:13:51.038Z,24.63
2019-06-26T06:16:54.747Z,24.73
2019-06-26T06:19:58.470Z,24.99
2019-06-26T06:23:02.268Z,24.96
2019-06-26T06:26:06.032Z,25.24
2019-06-26T06:29:09.836Z,25.41
2019-06-26T06:32:13.887Z,25.49
2019-06-26T06:35:17.823Z,25.59
2019-06-26T06:38:21.506Z,25.78
2019-06-26T06:41:25.211Z,25.91
2019-06-26T06:44:28.929Z,25.99
2019-06-26T06:47:33.133Z,25.99
2019-06-26T06:50:37.333Z,26.25
2019-06-26T06:53:41.085Z,26.29
2019-06-26T06:56:45.420Z,26.56
2019-06-26T06:59:49.121Z,26.62
2019-06-26T07:02:53.431Z,26.69
2019-06-26T07:05:57.769Z,26.75
2019-06-26T07:09:01.448Z,26.91
2019-06-26T07:12:05.332Z,26.91
2019-06-26T07:15:10.100Z,26.94
2019-06-26T07:18:13.799Z,27.13
2019-06-26T07:21:17.535Z,27.15
2019-06-26T07:24:21.647Z,27.32
2019-06-26T07:27:25.342Z,27.48
2019-06-26T07:30:29.080Z,27.55
2019-06-26T07:33:32.998Z,27.70
2019-06-26T07:36:37.051Z,27.83
2019-06-26T07:39:42.804Z,27.98
2019-06-26T07:42:46.222Z,27.99
2019-06-26T07:45:50.241Z,27.98
2019-06-26T07:48:57.370Z,28.09
2019-06-26T07:51:59.395Z,28.15
2019-06-26T07:55:03.165Z,28.16
2019-06-26T07:58:06.954Z,28.36
2019-06-26T08:01:10.970Z,28.28
2019-06-26T08:04:14.955Z,28.46
2019-06-26T08:07:19.067Z,28.52
2019-06-26T08:10:22.750Z,28.52
2019-06-26T08:13:27.082Z,28.68
2019-06-26T08:16:34.327Z,28.80
2019-06-26T08:19:36.671Z,28.73
2019-06-26T08:22:40.665Z,28.71
2019-06-26T08:25:44.355Z,28.84
2019-06-26T08:28:48.051Z,28.89
2019-06-26T08:31:52.088Z,28.94
2019-06-26T08:34:55.858Z,28.97
2019-06-26T08:38:10.999Z,29.01
2019-06-26T08:41:05.542Z,29.06
2019-06-26T08:44:09.246Z,29.02
2019-06-26T08:47:12.942Z,29.08
2019-06-26T08:50:18.116Z,29.15
2019-06-26T08:53:22.418Z,29.21
2019-06-26T08:56:26.407Z,29.28
2019-06-26T08:59:30.156Z,29.32
2019-06-26T09:02:33.839Z,29.27
2019-06-26T09:05:47.871Z,29.38
2019-06-26T09:08:43.312Z,29.28
2019-06-26T09:11:47.314Z,29.40
2019-06-26T09:14:51.009Z,29.50
2019-06-26T09:17:54.718Z,29.52
2019-06-26T09:20:58.672Z,29.45
2019-06-26T09:24:02.377Z,29.37
2019-06-26T09:27:06.859Z,29.38
2019-06-26T09:30:10.909Z,29.54
2019-06-26T09:33:14.614Z,29.64
2019-06-26T09:36:18.943Z,29.64
2019-06-26T09:39:22.865Z,29.89
2019-06-26T09:42:26.547Z,29.95
2019-06-26T09:45:30.243Z,30.03
2019-06-26T09:48:51.164Z,29.98
2019-06-26T09:51:40.347Z,29.86
2019-06-26T09:54:44.313Z,29.85
2019-06-26T09:57:48.077Z,30.20
2019-06-26T10:00:52.277Z,30.28
2019-06-26T10:03:55.991Z,30.24
2019-06-26T10:07:00.027Z,30.33
2019-06-26T10:10:04.323Z,30.43
2019-06-26T10:13:08.016Z,30.40
2019-06-26T10:16:11.721Z,30.51
2019-06-26T10:19:15.737Z,30.65
2019-06-26T10:22:19.996Z,30.83
2019-06-26T10:25:24.015Z,30.93
2019-06-26T10:28:27.711Z,30.79
2019-06-26T10:31:31.699Z,30.94
2019-06-26T10:34:35.721Z,31.45
2019-06-26T10:37:39.829Z,31.42
2019-06-26T10:40:43.628Z,31.84
2019-06-26T10:43:47.638Z,32.04
2019-06-26T10:46:51.864Z,32.85
2019-06-26T10:49:56.192Z,33.57
2019-06-26T10:53:00.292Z,31.89
2019-06-26T10:56:04.904Z,33.33
2019-06-26T10:59:08.597Z,35.26
2019-06-26T11:02:16.605Z,33.01
2019-06-26T11:05:18.573Z,34.49
2019-06-26T11:08:22.265Z,33.46
2019-06-26T11:11:26.198Z,33.80
2019-06-26T11:14:30.130Z,34.28
2019-06-26T11:17:33.858Z,35.17
2019-06-26T11:20:37.550Z,35.51
2019-06-26T11:23:41.615Z,34.91
2019-06-26T11:26:45.596Z,34.48
2019-06-26T11:29:49.613Z,33.99
2019-06-26T11:32:53.387Z,33.22
2019-06-26T11:35:57.372Z,34.01
2019-06-26T11:39:01.082Z,34.07
2019-06-26T11:42:05.051Z,34.11
2019-06-26T11:45:09.741Z,34.61
2019-06-26T11:48:13.556Z,34.56
2019-06-26T11:51:17.472Z,34.46
2019-06-26T11:54:21.343Z,34.09
2019-06-26T11:57:25.533Z,34.25
2019-06-26T12:00:29.245Z,34.57
2019-06-26T12:03:33.246Z,34.34
2019-06-26T12:06:37.231Z,34.20
2019-06-26T12:09:41.325Z,34.48
2019-06-26T12:12:45.941Z,33.77
2019-06-26T12:15:49.690Z,33.49
2019-06-26T12:18:54.034Z,34.41
2019-06-26T12:21:57.862Z,33.90
2019-06-26T12:25:01.569Z,34.15
2019-06-26T12:28:05.636Z,34.30
2019-06-26T12:31:09.576Z,34.17
2019-06-26T12:34:13.658Z,33.98
2019-06-26T12:37:17.312Z,33.37
2019-06-26T12:40:21.370Z,33.48
2019-06-26T12:43:25.088Z,33.87
2019-06-26T12:46:28.776Z,33.77
2019-06-26T12:49:32.836Z,33.14
2019-06-26T12:52:36.609Z,33.01
2019-06-26T12:55:40.300Z,32.87
2019-06-26T12:58:44.265Z,33.31
2019-06-26T13:01:47.997Z,33.32
2019-06-26T13:04:51.658Z,33.56
2019-06-26T13:07:55.691Z,33.31
2019-06-26T13:10:59.459Z,33.13
2019-06-26T13:14:03.821Z,32.35
2019-06-26T13:17:07.534Z,32.25
2019-06-26T13:20:11.818Z,32.00
2019-06-26T13:23:15.486Z,32.24
2019-06-26T13:26:19.521Z,32.62
2019-06-26T13:29:23.891Z,32.24
2019-06-26T13:32:27.583Z,32.62
2019-06-26T13:35:31.453Z,32.51
2019-06-26T13:38:35.502Z,32.07
2019-06-26T13:41:39.244Z,31.45
2019-06-26T13:44:43.219Z,31.72
2019-06-26T13:47:47.255Z,31.56
2019-06-26T13:50:50.962Z,31.09
2019-06-26T13:53:55.282Z,31.64
2019-06-26T13:56:59.434Z,31.58
2019-06-26T14:00:03.324Z,30.99
2019-06-26T14:03:07.379Z,31.78
2019-06-26T14:06:11.082Z,31.48
2019-06-26T14:09:14.783Z,30.76
2019-06-26T14:12:19.427Z,30.24
2019-06-26T14:15:23.688Z,30.75
2019-06-26T14:18:30.378Z,30.41
2019-06-26T14:21:33.166Z,30.71
2019-06-26T14:24:36.834Z,30.57
2019-06-26T14:27:40.773Z,30.52
2019-06-26T14:30:45.191Z,30.06
2019-06-26T14:33:48.906Z,30.29
2019-06-26T14:36:52.605Z,30.20
2019-06-26T14:39:56.556Z,30.66
2019-06-26T14:43:00.651Z,29.66
2019-06-26T14:46:04.409Z,29.80
2019-06-26T14:49:08.454Z,29.40
2019-06-26T14:52:12.140Z,29.55
2019-06-26T14:55:15.826Z,29.11
2019-06-26T14:58:19.587Z,28.56
2019-06-26T15:01:23.310Z,28.77
2019-06-26T15:04:26.966Z,28.57
2019-06-26T15:07:30.637Z,28.71
2019-06-26T15:10:34.316Z,28.38
2019-06-26T15:13:38.252Z,28.32
2019-06-26T15:16:42.044Z,28.17
2019-06-26T15:19:46.806Z,28.01
2019-06-26T15:22:50.536Z,27.92
2019-06-26T15:25:54.216Z,27.95
2019-06-26T15:28:57.933Z,27.49
2019-06-26T15:32:02.636Z,27.65
2019-06-26T15:35:06.853Z,27.27
2019-06-26T15:38:10.690Z,27.31
2019-06-26T15:41:14.656Z,27.09
2019-06-26T15:44:18.602Z,27.08
2019-06-26T15:47:22.933Z,26.97
2019-06-26T15:50:26.634Z,26.88
2019-06-26T15:53:30.655Z,26.61
2019-06-26T15:56:34.325Z,26.69
2019-06-26T15:59:38.018Z,26.57
2019-06-26T16:02:42.129Z,26.43
2019-06-26T16:05:45.924Z,26.35
2019-06-26T16:08:49.895Z,26.19
2019-06-26T16:11:53.584Z,25.74
2019-06-26T16:14:57.634Z,25.81
2019-06-26T16:18:09.433Z,25.73
2019-06-26T16:21:13.378Z,25.69
2019-06-26T16:24:17.113Z,25.51
2019-06-26T16:27:21.621Z,25.21
2019-06-26T16:30:25.763Z,25.33
2019-06-26T16:33:29.455Z,25.19
2019-06-26T16:36:33.299Z,25.28
2019-06-26T16:39:37.319Z,25.10
2019-06-26T16:42:41.271Z,25.04
2019-06-26T16:45:45.055Z,25.05
2019-06-26T16:48:49.149Z,25.06
2019-06-26T16:51:52.838Z,24.78
2019-06-26T16:54:56.902Z,24.66
2019-06-26T16:58:00.581Z,24.49
2019-06-26T17:01:04.267Z,24.61
2019-06-26T17:04:08.020Z,24.48
2019-06-26T17:07:11.749Z,24.34
2019-06-26T17:10:15.888Z,24.11
2019-06-26T17:13:19.801Z,24.09
2019-06-26T17:16:23.830Z,23.54
2019-06-26T17:19:27.598Z,23.41
2019-06-26T17:22:31.580Z,23.45
2019-06-26T17:25:35.520Z,23.74
2019-06-26T17:28:39.319Z,23.51
2019-06-26T17:31:43.019Z,23.58
2019-06-26T17:34:47.073Z,23.38
2019-06-26T17:37:51.166Z,23.38
2019-06-26T17:40:55.141Z,22.88
2019-06-26T17:43:58.813Z,22.86
2019-06-26T17:47:06.835Z,23.01
2019-06-26T17:50:12.704Z,22.87
2019-06-26T17:53:21.522Z,22.74
2019-06-26T17:56:21.894Z,22.40
2019-06-26T17:59:25.630Z,22.38
2019-06-26T18:02:29.758Z,22.03
2019-06-26T18:05:34.156Z,22.14
2019-06-26T18:08:37.942Z,22.17
2019-06-26T18:11:41.758Z,21.96
2019-06-26T18:14:45.449Z,22.03
2019-06-26T18:17:49.153Z,22.04
2019-06-26T18:20:52.869Z,21.98
2019-06-26T18:23:56.550Z,21.79
2019-06-26T18:27:00.814Z,21.83
2019-06-26T18:30:05.075Z,21.79
2019-06-26T18:33:08.761Z,21.89
2019-06-26T18:36:12.751Z,21.73
2019-06-26T18:39:16.876Z,21.38
2019-06-26T18:42:20.575Z,21.27
2019-06-26T18:45:24.717Z,21.18
2019-06-26T18:48:28.476Z,20.98
2019-06-26T18:51:32.174Z,21.01
2019-06-26T18:54:35.866Z,20.86
2019-06-26T18:57:39.612Z,20.97
2019-06-26T19:00:43.740Z,20.74
2019-06-26T19:03:47.438Z,21.08
2019-06-26T19:06:51.203Z,20.90
2019-06-26T19:09:54.984Z,20.79
2019-06-26T19:12:58.947Z,20.59
2019-06-26T19:16:04.650Z,20.61
2019-06-26T19:19:08.158Z,20.56
2019-06-26T19:22:13.554Z,20.27
2019-06-26T19:25:17.412Z,20.44
2019-06-26T19:28:23.182Z,20.37
2019-06-26T19:31:26.822Z,20.29
2019-06-26T19:34:31.063Z,20.33
2019-06-26T19:37:34.814Z,20.38
2019-06-26T19:40:38.720Z,20.24
2019-06-26T19:43:42.654Z,20.26
2019-06-26T19:46:46.635Z,20.19
2019-06-26T19:49:50.444Z,20.01
2019-06-26T19:52:54.213Z,19.74
2019-06-26T19:55:57.999Z,19.84
2019-06-26T19:59:01.991Z,19.76
2019-06-26T20:02:05.957Z,19.70
2019-06-26T20:05:10.306Z,19.54
2019-06-26T20:08:14.087Z,19.39
2019-06-26T20:11:17.775Z,19.39
2019-06-26T20:14:21.814Z,18.98
2019-06-26T20:17:25.747Z,19.10
2019-06-26T20:20:29.503Z,19.15
2019-06-26T20:23:33.529Z,19.02
2019-06-26T20:26:37.238Z,19.10
2019-06-26T20:29:41.081Z,19.02
2019-06-26T20:32:45.103Z,18.98
2019-06-26T20:35:48.787Z,18.78
2019-06-26T20:38:52.479Z,18.73
2019-06-26T20:41:56.325Z,19.03
2019-06-26T20:45:00.192Z,19.01
2019-06-26T20:48:04.060Z,19.00
2019-06-26T20:51:08.039Z,18.79
2019-06-26T20:54:12.077Z,18.64
2019-06-26T20:57:15.740Z,18.46
2019-06-26T21:00:22.481Z,18.69
2019-06-26T21:03:25.199Z,18.80
2019-06-26T21:06:28.999Z,18.52
2019-06-26T21:09:32.980Z,18.78
2019-06-26T21:12:36.692Z,18.95
2019-06-26T21:15:40.452Z,18.78
2019-06-26T21:18:44.143Z,18.75
2019-06-26T21:21:47.847Z,18.84
2019-06-26T21:24:51.717Z,18.78
2019-06-26T21:27:56.199Z,18.54
2019-06-26T21:31:00.419Z,18.64
2019-06-26T21:34:04.104Z,18.82
2019-06-26T21:37:07.879Z,18.45
2019-06-26T21:40:11.654Z,18.49
2019-06-26T21:43:15.958Z,18.45
2019-06-26T21:46:19.599Z,18.58
2019-06-26T21:49:23.637Z,18.46
2019-06-26T21:52:27.397Z,18.38
2019-06-26T21:55:34.651Z,18.18
2019-06-26T21:58:36.826Z,18.22
2019-06-26T22:01:40.872Z,18.21
2019-06-26T22:04:44.813Z,17.97
2019-06-26T22:07:48.627Z,18.17
2019-06-26T22:10:52.598Z,17.87
2019-06-26T22:13:56.302Z,17.99
2019-06-26T22:17:00.100Z,17.91
2019-06-26T22:20:07.666Z,18.03
2019-06-26T22:23:09.761Z,17.87
2019-06-26T22:26:14.401Z,17.79
2019-06-26T22:29:18.388Z,17.57
2019-06-26T22:32:22.338Z,17.91
2019-06-26T22:35:26.007Z,17.91
2019-06-26T22:38:29.678Z,17.74
2019-06-26T22:41:33.433Z,17.57
2019-06-26T22:44:37.142Z,17.42
2019-06-26T22:47:40.840Z,17.72
2019-06-26T22:50:44.974Z,17.62
2019-06-26T22:53:48.696Z,17.14
2019-06-26T22:56:52.372Z,17.36
2019-06-26T22:59:56.430Z,17.50
2019-06-26T23:03:00.146Z,17.47
2019-06-26T23:06:03.935Z,17.31
2019-06-26T23:09:08.055Z,17.47
2019-06-26T23:12:11.772Z,17.59
2019-06-26T23:15:15.994Z,17.57
2019-06-26T23:18:19.721Z,17.54
2019-06-26T23:21:23.732Z,17.22
2019-06-26T23:24:28.009Z,17.42
2019-06-26T23:27:31.807Z,17.15
2019-06-26T23:30:35.832Z,17.10
2019-06-26T23:33:39.611Z,17.20
2019-06-26T23:36:43.322Z,17.10
2019-06-26T23:39:48.343Z,16.98
2019-06-26T23:42:52.091Z,16.72
2019-06-26T23:45:56.426Z,16.83
2019-06-26T23:49:00.197Z,16.83
2019-06-26T23:52:03.902Z,16.69
2019-06-26T23:55:08.267Z,16.60
2019-06-26T23:58:12.306Z,16.70
